sensor_id;sensor_type;location;lat;lon;timestamp;P1;durP1;ratioP1;P2;durP2;ratioP2
55254;SDS011;41118;44.634;11.182;2022-11-15T00:01:42;23.25;;;10.68;;
55254;SDS011;41118;44.634;11.182;2022-11-15T00:04:08;28.42;;;9.15;;
55254;SDS011;41118;44.634;11.182;2022-11-15T00:06:35;31.58;;;11.60;;
55254;SDS011;41118;44.634;11.182;2022-11-15T00:09:01;33.65;;;11.60;;
55254;SDS011;41118;44.634;11.182;2022-11-15T00:11:27;24.90;;;9.63;;
55254;SDS011;41118;44.634;11.182;2022-11-15T00:13:56;30.77;;;11.05;;
55254;SDS011;41118;44.634;11.182;2022-11-15T00:16:23;24.98;;;8.52;;
55254;SDS011;41118;44.634;11.182;2022-11-15T00:18:49;23.58;;;8.20;;
55254;SDS011;41118;44.634;11.182;2022-11-15T00:21:15;20.20;;;8.02;;
55254;SDS011;41118;44.634;11.182;2022-11-15T00:23:41;22.38;;;7.97;;
55254;SDS011;41118;44.634;11.182;2022-11-15T00:26:12;16.15;;;6.47;;
55254;SDS011;41118;44.634;11.182;2022-11-15T00:28:38;16.98;;;6.00;;
55254;SDS011;41118;44.634;11.182;2022-11-15T00:31:06;27.02;;;10.45;;
55254;SDS011;41118;44.634;11.182;2022-11-15T00:33:33;20.10;;;7.82;;
55254;SDS011;41118;44.634;11.182;2022-11-15T00:36:03;20.88;;;8.50;;
55254;SDS011;41118;44.634;11.182;2022-11-15T00:38:33;18.80;;;5.95;;
55254;SDS011;41118;44.634;11.182;2022-11-15T00:41:00;19.17;;;6.93;;
55254;SDS011;41118;44.634;11.182;2022-11-15T00:43:26;20.98;;;8.27;;
55254;SDS011;41118;44.634;11.182;2022-11-15T00:45:52;12.05;;;5.90;;
55254;SDS011;41118;44.634;11.182;2022-11-15T00:48:18;22.88;;;8.43;;
55254;SDS011;41118;44.634;11.182;2022-11-15T00:50:44;18.70;;;5.95;;
55254;SDS011;41118;44.634;11.182;2022-11-15T00:53:10;13.45;;;5.47;;
55254;SDS011;41118;44.634;11.182;2022-11-15T00:55:36;17.92;;;6.25;;
55254;SDS011;41118;44.634;11.182;2022-11-15T00:58:03;19.17;;;7.60;;
55254;SDS011;41118;44.634;11.182;2022-11-15T01:00:29;16.80;;;5.47;;
55254;SDS011;41118;44.634;11.182;2022-11-15T01:02:56;21.35;;;6.65;;
55254;SDS011;41118;44.634;11.182;2022-11-15T01:05:22;14.10;;;6.45;;
55254;SDS011;41118;44.634;11.182;2022-11-15T01:07:52;15.95;;;6.88;;
55254;SDS011;41118;44.634;11.182;2022-11-15T01:10:19;14.25;;;5.00;;
55254;SDS011;41118;44.634;11.182;2022-11-15T01:12:45;12.48;;;4.93;;
55254;SDS011;41118;44.634;11.182;2022-11-15T01:15:12;9.90;;;3.70;;
55254;SDS011;41118;44.634;11.182;2022-11-15T01:17:38;12.25;;;4.72;;
55254;SDS011;41118;44.634;11.182;2022-11-15T01:20:05;12.10;;;5.18;;
55254;SDS011;41118;44.634;11.182;2022-11-15T01:22:32;12.57;;;4.22;;
55254;SDS011;41118;44.634;11.182;2022-11-15T01:24:58;15.13;;;4.75;;
55254;SDS011;41118;44.634;11.182;2022-11-15T01:27:24;12.45;;;4.93;;
55254;SDS011;41118;44.634;11.182;2022-11-15T01:29:50;16.83;;;3.95;;
55254;SDS011;41118;44.634;11.182;2022-11-15T01:32:17;14.32;;;5.30;;
55254;SDS011;41118;44.634;11.182;2022-11-15T01:34:43;10.07;;;3.42;;
55254;SDS011;41118;44.634;11.182;2022-11-15T01:37:09;9.25;;;3.97;;
55254;SDS011;41118;44.634;11.182;2022-11-15T01:39:36;13.07;;;3.45;;
55254;SDS011;41118;44.634;11.182;2022-11-15T01:42:02;12.52;;;4.35;;
55254;SDS011;41118;44.634;11.182;2022-11-15T01:44:36;10.98;;;2.95;;
55254;SDS011;41118;44.634;11.182;2022-11-15T01:47:38;9.27;;;3.38;;
55254;SDS011;41118;44.634;11.182;2022-11-15T01:49:58;15.05;;;3.75;;
55254;SDS011;41118;44.634;11.182;2022-11-15T01:52:25;10.73;;;3.15;;
55254;SDS011;41118;44.634;11.182;2022-11-15T01:57:30;19.08;;;4.75;;
55254;SDS011;41118;44.634;11.182;2022-11-15T01:59:56;12.65;;;5.63;;
55254;SDS011;41118;44.634;11.182;2022-11-15T02:02:23;12.82;;;3.67;;
55254;SDS011;41118;44.634;11.182;2022-11-15T02:04:49;9.85;;;2.67;;
55254;SDS011;41118;44.634;11.182;2022-11-15T02:07:16;12.98;;;4.05;;
55254;SDS011;41118;44.634;11.182;2022-11-15T02:09:43;11.38;;;4.28;;
55254;SDS011;41118;44.634;11.182;2022-11-15T02:12:10;10.80;;;2.90;;
55254;SDS011;41118;44.634;11.182;2022-11-15T02:14:38;17.60;;;4.18;;
55254;SDS011;41118;44.634;11.182;2022-11-15T02:19:40;14.07;;;4.63;;
55254;SDS011;41118;44.634;11.182;2022-11-15T02:22:27;15.48;;;3.70;;
55254;SDS011;41118;44.634;11.182;2022-11-15T02:25:33;13.23;;;4.35;;
55254;SDS011;41118;44.634;11.182;2022-11-15T02:32:58;9.13;;;4.28;;
55254;SDS011;41118;44.634;11.182;2022-11-15T02:36:11;12.00;;;4.68;;
55254;SDS011;41118;44.634;11.182;2022-11-15T02:43:14;12.70;;;3.40;;
55254;SDS011;41118;44.634;11.182;2022-11-15T02:46:03;12.45;;;4.15;;
55254;SDS011;41118;44.634;11.182;2022-11-15T02:48:32;14.43;;;3.78;;
55254;SDS011;41118;44.634;11.182;2022-11-15T02:50:58;17.27;;;4.57;;
55254;SDS011;41118;44.634;11.182;2022-11-15T02:53:25;13.90;;;5.15;;
55254;SDS011;41118;44.634;11.182;2022-11-15T02:55:51;10.63;;;4.40;;
55254;SDS011;41118;44.634;11.182;2022-11-15T03:03:38;13.35;;;4.82;;
55254;SDS011;41118;44.634;11.182;2022-11-15T03:06:22;14.05;;;5.03;;
55254;SDS011;41118;44.634;11.182;2022-11-15T03:09:01;21.52;;;4.35;;
55254;SDS011;41118;44.634;11.182;2022-11-15T03:11:29;10.50;;;4.28;;
55254;SDS011;41118;44.634;11.182;2022-11-15T03:19:25;14.88;;;6.07;;
55254;SDS011;41118;44.634;11.182;2022-11-15T03:24:20;12.45;;;5.00;;
55254;SDS011;41118;44.634;11.182;2022-11-15T03:26:48;14.15;;;3.85;;
55254;SDS011;41118;44.634;11.182;2022-11-15T03:29:16;14.95;;;3.92;;
55254;SDS011;41118;44.634;11.182;2022-11-15T03:31:44;11.55;;;5.07;;
55254;SDS011;41118;44.634;11.182;2022-11-15T03:34:14;12.50;;;5.07;;
55254;SDS011;41118;44.634;11.182;2022-11-15T03:36:41;14.43;;;5.15;;
55254;SDS011;41118;44.634;11.182;2022-11-15T03:39:07;12.52;;;4.10;;
55254;SDS011;41118;44.634;11.182;2022-11-15T03:46:52;12.93;;;4.38;;
55254;SDS011;41118;44.634;11.182;2022-11-15T03:49:33;15.52;;;4.63;;
55254;SDS011;41118;44.634;11.182;2022-11-15T03:52:00;10.30;;;3.63;;
55254;SDS011;41118;44.634;11.182;2022-11-15T03:54:27;15.27;;;5.38;;
55254;SDS011;41118;44.634;11.182;2022-11-15T03:56:54;16.92;;;3.40;;
55254;SDS011;41118;44.634;11.182;2022-11-15T03:59:20;15.02;;;4.65;;
55254;SDS011;41118;44.634;11.182;2022-11-15T04:01:46;10.82;;;3.00;;
55254;SDS011;41118;44.634;11.182;2022-11-15T04:04:12;8.95;;;2.88;;
55254;SDS011;41118;44.634;11.182;2022-11-15T04:06:38;12.30;;;3.67;;
55254;SDS011;41118;44.634;11.182;2022-11-15T04:09:05;10.02;;;4.03;;
55254;SDS011;41118;44.634;11.182;2022-11-15T04:11:31;11.75;;;3.70;;
55254;SDS011;41118;44.634;11.182;2022-11-15T04:13:57;11.23;;;3.25;;
55254;SDS011;41118;44.634;11.182;2022-11-15T04:16:24;15.40;;;3.88;;
55254;SDS011;41118;44.634;11.182;2022-11-15T04:18:50;12.10;;;4.22;;
55254;SDS011;41118;44.634;11.182;2022-11-15T04:21:36;11.23;;;3.65;;
55254;SDS011;41118;44.634;11.182;2022-11-15T04:24:20;13.30;;;3.05;;
55254;SDS011;41118;44.634;11.182;2022-11-15T04:26:47;12.48;;;3.63;;
55254;SDS011;41118;44.634;11.182;2022-11-15T04:29:13;13.23;;;5.18;;
55254;SDS011;41118;44.634;11.182;2022-11-15T04:31:57;10.50;;;3.70;;
55254;SDS011;41118;44.634;11.182;2022-11-15T04:34:23;8.93;;;3.53;;
55254;SDS011;41118;44.634;11.182;2022-11-15T04:36:50;13.57;;;4.78;;
55254;SDS011;41118;44.634;11.182;2022-11-15T04:39:34;11.93;;;3.00;;
55254;SDS011;41118;44.634;11.182;2022-11-15T04:42:01;10.95;;;3.03;;
55254;SDS011;41118;44.634;11.182;2022-11-15T04:44:27;12.70;;;4.13;;
55254;SDS011;41118;44.634;11.182;2022-11-15T04:46:54;5.78;;;2.35;;
55254;SDS011;41118;44.634;11.182;2022-11-15T04:49:20;9.55;;;2.35;;
55254;SDS011;41118;44.634;11.182;2022-11-15T04:51:46;8.77;;;2.85;;
55254;SDS011;41118;44.634;11.182;2022-11-15T04:54:12;8.13;;;2.50;;
55254;SDS011;41118;44.634;11.182;2022-11-15T04:56:39;10.07;;;2.75;;
55254;SDS011;41118;44.634;11.182;2022-11-15T04:59:05;7.57;;;3.17;;
55254;SDS011;41118;44.634;11.182;2022-11-15T05:01:31;10.93;;;2.63;;
55254;SDS011;41118;44.634;11.182;2022-11-15T05:03:58;10.02;;;2.75;;
55254;SDS011;41118;44.634;11.182;2022-11-15T05:06:46;6.10;;;2.75;;
55254;SDS011;41118;44.634;11.182;2022-11-15T05:09:13;8.50;;;2.58;;
55254;SDS011;41118;44.634;11.182;2022-11-15T05:11:39;10.82;;;3.20;;
55254;SDS011;41118;44.634;11.182;2022-11-15T05:14:05;9.77;;;2.88;;
55254;SDS011;41118;44.634;11.182;2022-11-15T05:16:32;9.70;;;2.53;;
55254;SDS011;41118;44.634;11.182;2022-11-15T05:18:58;8.88;;;2.05;;
55254;SDS011;41118;44.634;11.182;2022-11-15T05:21:25;5.78;;;2.03;;
55254;SDS011;41118;44.634;11.182;2022-11-15T05:23:51;5.07;;;1.20;;
55254;SDS011;41118;44.634;11.182;2022-11-15T05:26:17;7.78;;;2.22;;
55254;SDS011;41118;44.634;11.182;2022-11-15T05:28:43;7.05;;;2.45;;
55254;SDS011;41118;44.634;11.182;2022-11-15T05:31:11;11.75;;;2.05;;
55254;SDS011;41118;44.634;11.182;2022-11-15T05:33:37;8.30;;;3.38;;
55254;SDS011;41118;44.634;11.182;2022-11-15T05:36:09;7.80;;;2.28;;
55254;SDS011;41118;44.634;11.182;2022-11-15T05:38:37;14.25;;;2.95;;
55254;SDS011;41118;44.634;11.182;2022-11-15T05:41:04;9.60;;;2.25;;
55254;SDS011;41118;44.634;11.182;2022-11-15T05:43:30;6.03;;;1.60;;
55254;SDS011;41118;44.634;11.182;2022-11-15T05:45:57;6.25;;;1.02;;
55254;SDS011;41118;44.634;11.182;2022-11-15T05:48:24;8.07;;;2.55;;
55254;SDS011;41118;44.634;11.182;2022-11-15T05:50:51;11.13;;;2.47;;
55254;SDS011;41118;44.634;11.182;2022-11-15T05:53:18;6.63;;;2.28;;
55254;SDS011;41118;44.634;11.182;2022-11-15T05:55:45;9.00;;;1.80;;
55254;SDS011;41118;44.634;11.182;2022-11-15T05:58:11;9.57;;;2.20;;
55254;SDS011;41118;44.634;11.182;2022-11-15T06:00:38;11.80;;;2.25;;
55254;SDS011;41118;44.634;11.182;2022-11-15T06:03:04;10.30;;;2.72;;
55254;SDS011;41118;44.634;11.182;2022-11-15T06:05:31;6.95;;;2.17;;
55254;SDS011;41118;44.634;11.182;2022-11-15T06:07:57;14.07;;;2.35;;
55254;SDS011;41118;44.634;11.182;2022-11-15T06:10:24;6.57;;;1.75;;
55254;SDS011;41118;44.634;11.182;2022-11-15T06:12:57;9.60;;;2.72;;
55254;SDS011;41118;44.634;11.182;2022-11-15T06:15:23;7.00;;;2.60;;
55254;SDS011;41118;44.634;11.182;2022-11-15T06:17:49;12.52;;;2.30;;
55254;SDS011;41118;44.634;11.182;2022-11-15T06:20:15;9.80;;;2.95;;
55254;SDS011;41118;44.634;11.182;2022-11-15T06:22:42;8.63;;;1.52;;
55254;SDS011;41118;44.634;11.182;2022-11-15T06:25:08;6.70;;;2.00;;
55254;SDS011;41118;44.634;11.182;2022-11-15T06:27:34;8.20;;;3.17;;
55254;SDS011;41118;44.634;11.182;2022-11-15T06:30:00;8.45;;;2.53;;
55254;SDS011;41118;44.634;11.182;2022-11-15T06:32:26;10.65;;;2.58;;
55254;SDS011;41118;44.634;11.182;2022-11-15T06:34:52;9.18;;;2.78;;
55254;SDS011;41118;44.634;11.182;2022-11-15T06:37:19;7.38;;;1.67;;
55254;SDS011;41118;44.634;11.182;2022-11-15T06:39:45;13.30;;;2.97;;
55254;SDS011;41118;44.634;11.182;2022-11-15T06:42:11;7.97;;;1.83;;
55254;SDS011;41118;44.634;11.182;2022-11-15T06:44:37;11.13;;;2.30;;
55254;SDS011;41118;44.634;11.182;2022-11-15T06:47:03;7.18;;;2.30;;
55254;SDS011;41118;44.634;11.182;2022-11-15T06:49:29;8.77;;;3.53;;
55254;SDS011;41118;44.634;11.182;2022-11-15T06:51:56;8.80;;;1.95;;
55254;SDS011;41118;44.634;11.182;2022-11-15T06:54:22;8.02;;;3.05;;
55254;SDS011;41118;44.634;11.182;2022-11-15T06:56:48;13.45;;;1.88;;
55254;SDS011;41118;44.634;11.182;2022-11-15T06:59:15;5.88;;;2.15;;
55254;SDS011;41118;44.634;11.182;2022-11-15T07:01:41;5.45;;;1.30;;
55254;SDS011;41118;44.634;11.182;2022-11-15T07:04:07;6.95;;;2.20;;
55254;SDS011;41118;44.634;11.182;2022-11-15T07:06:33;6.40;;;2.15;;
55254;SDS011;41118;44.634;11.182;2022-11-15T07:09:01;9.05;;;1.98;;
55254;SDS011;41118;44.634;11.182;2022-11-15T07:11:27;9.82;;;2.17;;
55254;SDS011;41118;44.634;11.182;2022-11-15T07:13:53;8.32;;;2.47;;
55254;SDS011;41118;44.634;11.182;2022-11-15T07:16:19;8.40;;;3.42;;
55254;SDS011;41118;44.634;11.182;2022-11-15T07:18:45;8.70;;;1.95;;
55254;SDS011;41118;44.634;11.182;2022-11-15T07:21:11;8.80;;;2.28;;
55254;SDS011;41118;44.634;11.182;2022-11-15T07:23:38;10.05;;;2.33;;
55254;SDS011;41118;44.634;11.182;2022-11-15T07:26:05;7.22;;;2.13;;
55254;SDS011;41118;44.634;11.182;2022-11-15T07:28:31;9.02;;;2.33;;
55254;SDS011;41118;44.634;11.182;2022-11-15T07:30:58;12.60;;;4.45;;
55254;SDS011;41118;44.634;11.182;2022-11-15T07:33:27;9.95;;;1.98;;
55254;SDS011;41118;44.634;11.182;2022-11-15T07:35:53;11.25;;;3.30;;
55254;SDS011;41118;44.634;11.182;2022-11-15T07:38:20;14.90;;;2.35;;
55254;SDS011;41118;44.634;11.182;2022-11-15T07:40:46;8.93;;;2.55;;
55254;SDS011;41118;44.634;11.182;2022-11-15T07:43:12;8.43;;;2.88;;
55254;SDS011;41118;44.634;11.182;2022-11-15T07:45:42;8.30;;;2.13;;
55254;SDS011;41118;44.634;11.182;2022-11-15T07:48:09;11.50;;;2.67;;
55254;SDS011;41118;44.634;11.182;2022-11-15T07:50:35;14.00;;;3.25;;
55254;SDS011;41118;44.634;11.182;2022-11-15T07:53:01;12.73;;;2.47;;
55254;SDS011;41118;44.634;11.182;2022-11-15T07:55:28;12.20;;;3.10;;
55254;SDS011;41118;44.634;11.182;2022-11-15T07:58:05;12.70;;;2.92;;
55254;SDS011;41118;44.634;11.182;2022-11-15T08:00:31;13.13;;;4.15;;
55254;SDS011;41118;44.634;11.182;2022-11-15T08:03:01;8.18;;;1.98;;
55254;SDS011;41118;44.634;11.182;2022-11-15T08:05:27;11.43;;;4.72;;
55254;SDS011;41118;44.634;11.182;2022-11-15T08:07:54;15.20;;;3.78;;
55254;SDS011;41118;44.634;11.182;2022-11-15T08:10:20;15.35;;;2.67;;
55254;SDS011;41118;44.634;11.182;2022-11-15T08:12:46;13.43;;;3.67;;
55254;SDS011;41118;44.634;11.182;2022-11-15T08:15:13;14.43;;;4.20;;
55254;SDS011;41118;44.634;11.182;2022-11-15T08:17:39;13.95;;;4.35;;
55254;SDS011;41118;44.634;11.182;2022-11-15T08:20:06;15.75;;;4.93;;
55254;SDS011;41118;44.634;11.182;2022-11-15T08:22:33;14.85;;;5.20;;
55254;SDS011;41118;44.634;11.182;2022-11-15T08:24:59;14.50;;;5.20;;
55254;SDS011;41118;44.634;11.182;2022-11-15T08:27:25;16.90;;;6.00;;
55254;SDS011;41118;44.634;11.182;2022-11-15T08:29:52;20.17;;;8.13;;
55254;SDS011;41118;44.634;11.182;2022-11-15T08:32:17;23.38;;;11.05;;
55254;SDS011;41118;44.634;11.182;2022-11-15T08:34:43;26.75;;;15.10;;
55254;SDS011;41118;44.634;11.182;2022-11-15T08:37:10;24.65;;;14.20;;
55254;SDS011;41118;44.634;11.182;2022-11-15T08:39:36;26.15;;;15.00;;
55254;SDS011;41118;44.634;11.182;2022-11-15T08:42:02;31.33;;;13.38;;
55254;SDS011;41118;44.634;11.182;2022-11-15T08:44:29;32.05;;;15.68;;
55254;SDS011;41118;44.634;11.182;2022-11-15T08:46:55;29.65;;;15.80;;
55254;SDS011;41118;44.634;11.182;2022-11-15T08:49:21;30.20;;;16.27;;
55254;SDS011;41118;44.634;11.182;2022-11-15T08:51:47;32.53;;;15.32;;
55254;SDS011;41118;44.634;11.182;2022-11-15T08:54:14;26.48;;;11.98;;
55254;SDS011;41118;44.634;11.182;2022-11-15T08:56:40;23.20;;;11.95;;
55254;SDS011;41118;44.634;11.182;2022-11-15T08:59:06;30.02;;;12.70;;
55254;SDS011;41118;44.634;11.182;2022-11-15T09:01:32;26.95;;;11.65;;
55254;SDS011;41118;44.634;11.182;2022-11-15T09:03:58;29.33;;;12.48;;
55254;SDS011;41118;44.634;11.182;2022-11-15T09:06:25;26.83;;;11.55;;
55254;SDS011;41118;44.634;11.182;2022-11-15T09:08:51;29.70;;;11.60;;
55254;SDS011;41118;44.634;11.182;2022-11-15T09:11:17;22.60;;;11.07;;
55254;SDS011;41118;44.634;11.182;2022-11-15T09:13:45;31.13;;;12.27;;
55254;SDS011;41118;44.634;11.182;2022-11-15T09:16:11;37.25;;;12.38;;
55254;SDS011;41118;44.634;11.182;2022-11-15T09:18:37;24.38;;;11.23;;
55254;SDS011;41118;44.634;11.182;2022-11-15T09:21:04;25.75;;;11.02;;
55254;SDS011;41118;44.634;11.182;2022-11-15T09:23:30;27.15;;;10.52;;
55254;SDS011;41118;44.634;11.182;2022-11-15T09:26:00;21.63;;;10.27;;
55254;SDS011;41118;44.634;11.182;2022-11-15T09:28:27;25.88;;;10.52;;
55254;SDS011;41118;44.634;11.182;2022-11-15T09:31:00;26.33;;;10.52;;
55254;SDS011;41118;44.634;11.182;2022-11-15T09:33:27;25.83;;;12.70;;
55254;SDS011;41118;44.634;11.182;2022-11-15T09:35:53;26.23;;;10.80;;
55254;SDS011;41118;44.634;11.182;2022-11-15T09:38:20;21.58;;;8.57;;
55254;SDS011;41118;44.634;11.182;2022-11-15T09:40:48;26.67;;;9.70;;
55254;SDS011;41118;44.634;11.182;2022-11-15T09:51:04;23.98;;;8.43;;
55254;SDS011;41118;44.634;11.182;2022-11-15T09:53:40;22.98;;;9.05;;
55254;SDS011;41118;44.634;11.182;2022-11-15T09:56:14;22.88;;;7.85;;
55254;SDS011;41118;44.634;11.182;2022-11-15T09:58:45;19.02;;;7.28;;
55254;SDS011;41118;44.634;11.182;2022-11-15T10:01:16;22.77;;;9.18;;
55254;SDS011;41118;44.634;11.182;2022-11-15T10:03:44;23.17;;;8.02;;
55254;SDS011;41118;44.634;11.182;2022-11-15T10:06:15;21.50;;;7.50;;
55254;SDS011;41118;44.634;11.182;2022-11-15T10:09:00;25.63;;;8.43;;
55254;SDS011;41118;44.634;11.182;2022-11-15T10:11:31;19.77;;;6.97;;
55254;SDS011;41118;44.634;11.182;2022-11-15T10:13:59;25.58;;;9.32;;
55254;SDS011;41118;44.634;11.182;2022-11-15T10:24:10;22.15;;;6.93;;
55254;SDS011;41118;44.634;11.182;2022-11-15T10:26:36;20.08;;;6.85;;
55254;SDS011;41118;44.634;11.182;2022-11-15T10:29:03;26.20;;;10.07;;
55254;SDS011;41118;44.634;11.182;2022-11-15T10:31:29;19.30;;;5.97;;
55254;SDS011;41118;44.634;11.182;2022-11-15T10:34:15;24.27;;;8.70;;
55254;SDS011;41118;44.634;11.182;2022-11-15T10:37:03;22.80;;;6.63;;
55254;SDS011;41118;44.634;11.182;2022-11-15T10:39:28;22.88;;;8.48;;
55254;SDS011;41118;44.634;11.182;2022-11-15T10:41:54;21.95;;;9.43;;
55254;SDS011;41118;44.634;11.182;2022-11-15T10:44:28;31.10;;;9.10;;
55254;SDS011;41118;44.634;11.182;2022-11-15T10:51:48;31.40;;;8.25;;
55254;SDS011;41118;44.634;11.182;2022-11-15T10:54:17;26.63;;;7.95;;
55254;SDS011;41118;44.634;11.182;2022-11-15T10:56:47;25.02;;;10.60;;
55254;SDS011;41118;44.634;11.182;2022-11-15T10:59:21;27.95;;;8.93;;
55254;SDS011;41118;44.634;11.182;2022-11-15T11:01:48;27.95;;;9.23;;
55254;SDS011;41118;44.634;11.182;2022-11-15T11:04:14;29.25;;;9.20;;
55254;SDS011;41118;44.634;11.182;2022-11-15T11:06:50;32.30;;;11.57;;
55254;SDS011;41118;44.634;11.182;2022-11-15T11:09:32;29.33;;;9.55;;
55254;SDS011;41118;44.634;11.182;2022-11-15T11:11:59;29.52;;;10.98;;
55254;SDS011;41118;44.634;11.182;2022-11-15T11:39:51;24.30;;;8.88;;
55254;SDS011;41118;44.634;11.182;2022-11-15T11:43:04;24.10;;;8.27;;
55254;SDS011;41118;44.634;11.182;2022-11-15T11:47:38;28.67;;;9.90;;
55254;SDS011;41118;44.634;11.182;2022-11-15T11:50:15;23.77;;;8.57;;
55254;SDS011;41118;44.634;11.182;2022-11-15T11:53:03;22.45;;;7.13;;
55254;SDS011;41118;44.634;11.182;2022-11-15T11:55:39;26.30;;;9.13;;
55254;SDS011;41118;44.634;11.182;2022-11-15T12:00:38;27.95;;;8.93;;
55254;SDS011;41118;44.634;11.182;2022-11-15T12:03:18;30.33;;;9.50;;
55254;SDS011;41118;44.634;11.182;2022-11-15T12:05:48;25.27;;;10.63;;
55254;SDS011;41118;44.634;11.182;2022-11-15T12:10:41;28.17;;;9.95;;
55254;SDS011;41118;44.634;11.182;2022-11-15T12:13:12;26.58;;;9.15;;
55254;SDS011;41118;44.634;11.182;2022-11-15T12:15:42;33.05;;;10.20;;
55254;SDS011;41118;44.634;11.182;2022-11-15T12:18:13;29.58;;;9.65;;
55254;SDS011;41118;44.634;11.182;2022-11-15T12:20:42;25.08;;;7.78;;
55254;SDS011;41118;44.634;11.182;2022-11-15T12:23:32;24.60;;;8.88;;
55254;SDS011;41118;44.634;11.182;2022-11-15T12:26:16;22.55;;;9.75;;
55254;SDS011;41118;44.634;11.182;2022-11-15T12:31:57;23.08;;;7.80;;
55254;SDS011;41118;44.634;11.182;2022-11-15T12:33:59;26.80;;;7.68;;
55254;SDS011;41118;44.634;11.182;2022-11-15T12:36:32;22.55;;;7.25;;
55254;SDS011;41118;44.634;11.182;2022-11-15T12:39:00;26.60;;;8.35;;
55254;SDS011;41118;44.634;11.182;2022-11-15T12:41:32;23.58;;;7.68;;
55254;SDS011;41118;44.634;11.182;2022-11-15T12:43:58;24.05;;;8.77;;
55254;SDS011;41118;44.634;11.182;2022-11-15T13:17:35;32.63;;;9.43;;
55254;SDS011;41118;44.634;11.182;2022-11-15T13:22:32;27.40;;;8.30;;
55254;SDS011;41118;44.634;11.182;2022-11-15T13:28:01;31.23;;;10.27;;
55254;SDS011;41118;44.634;11.182;2022-11-15T13:30:28;28.17;;;10.85;;
55254;SDS011;41118;44.634;11.182;2022-11-15T13:32:55;26.95;;;10.27;;
55254;SDS011;41118;44.634;11.182;2022-11-15T13:35:26;31.35;;;9.38;;
55254;SDS011;41118;44.634;11.182;2022-11-15T13:37:53;32.72;;;11.02;;
55254;SDS011;41118;44.634;11.182;2022-11-15T13:40:21;26.25;;;8.20;;
55254;SDS011;41118;44.634;11.182;2022-11-15T13:42:48;31.88;;;8.30;;
55254;SDS011;41118;44.634;11.182;2022-11-15T13:45:15;30.05;;;8.75;;
55254;SDS011;41118;44.634;11.182;2022-11-15T13:47:42;31.75;;;9.80;;
55254;SDS011;41118;44.634;11.182;2022-11-15T13:50:11;28.50;;;7.75;;
55254;SDS011;41118;44.634;11.182;2022-11-15T13:52:38;27.40;;;9.40;;
55254;SDS011;41118;44.634;11.182;2022-11-15T13:55:12;28.08;;;8.25;;
55254;SDS011;41118;44.634;11.182;2022-11-15T14:00:19;22.85;;;7.97;;
55254;SDS011;41118;44.634;11.182;2022-11-15T14:02:49;24.50;;;8.03;;
55254;SDS011;41118;44.634;11.182;2022-11-15T14:05:16;25.85;;;9.13;;
55254;SDS011;41118;44.634;11.182;2022-11-15T14:12:53;25.35;;;8.93;;
55254;SDS011;41118;44.634;11.182;2022-11-15T14:17:54;28.08;;;9.02;;
55254;SDS011;41118;44.634;11.182;2022-11-15T14:20:41;22.67;;;9.00;;
55254;SDS011;41118;44.634;11.182;2022-11-15T14:23:25;24.38;;;9.45;;
55254;SDS011;41118;44.634;11.182;2022-11-15T14:30:44;24.35;;;8.18;;
55254;SDS011;41118;44.634;11.182;2022-11-15T14:33:19;23.00;;;7.03;;
55254;SDS011;41118;44.634;11.182;2022-11-15T14:35:45;26.75;;;9.52;;
55254;SDS011;41118;44.634;11.182;2022-11-15T14:38:11;32.20;;;10.07;;
55254;SDS011;41118;44.634;11.182;2022-11-15T14:40:37;27.77;;;9.43;;
55254;SDS011;41118;44.634;11.182;2022-11-15T14:43:03;23.70;;;8.93;;
55254;SDS011;41118;44.634;11.182;2022-11-15T14:45:29;30.77;;;9.30;;
55254;SDS011;41118;44.634;11.182;2022-11-15T14:47:55;31.40;;;9.52;;
55254;SDS011;41118;44.634;11.182;2022-11-15T14:50:21;25.75;;;9.43;;
55254;SDS011;41118;44.634;11.182;2022-11-15T14:52:48;32.38;;;11.73;;
55254;SDS011;41118;44.634;11.182;2022-11-15T14:55:19;30.25;;;9.77;;
55254;SDS011;41118;44.634;11.182;2022-11-15T14:57:46;30.27;;;11.10;;
55254;SDS011;41118;44.634;11.182;2022-11-15T15:00:12;30.35;;;10.18;;
55254;SDS011;41118;44.634;11.182;2022-11-15T15:02:39;30.25;;;10.98;;
55254;SDS011;41118;44.634;11.182;2022-11-15T15:05:40;32.50;;;10.93;;
55254;SDS011;41118;44.634;11.182;2022-11-15T15:07:58;29.20;;;9.80;;
55254;SDS011;41118;44.634;11.182;2022-11-15T15:10:24;34.10;;;13.18;;
55254;SDS011;41118;44.634;11.182;2022-11-15T15:12:51;25.20;;;9.32;;
55254;SDS011;41118;44.634;11.182;2022-11-15T15:15:20;27.65;;;10.20;;
55254;SDS011;41118;44.634;11.182;2022-11-15T15:17:47;29.95;;;11.93;;
55254;SDS011;41118;44.634;11.182;2022-11-15T15:20:13;30.25;;;10.43;;
55254;SDS011;41118;44.634;11.182;2022-11-15T15:22:40;33.20;;;11.65;;
55254;SDS011;41118;44.634;11.182;2022-11-15T15:27:47;29.92;;;8.90;;
55254;SDS011;41118;44.634;11.182;2022-11-15T15:30:13;25.88;;;9.73;;
55254;SDS011;41118;44.634;11.182;2022-11-15T15:32:39;27.52;;;10.95;;
55254;SDS011;41118;44.634;11.182;2022-11-15T15:35:05;30.20;;;11.63;;
55254;SDS011;41118;44.634;11.182;2022-11-15T15:37:35;24.40;;;9.23;;
55254;SDS011;41118;44.634;11.182;2022-11-15T15:40:01;30.80;;;10.95;;
55254;SDS011;41118;44.634;11.182;2022-11-15T15:42:27;33.47;;;11.10;;
55254;SDS011;41118;44.634;11.182;2022-11-15T15:44:53;31.70;;;10.93;;
55254;SDS011;41118;44.634;11.182;2022-11-15T15:47:20;27.65;;;11.20;;
55254;SDS011;41118;44.634;11.182;2022-11-15T15:49:47;26.35;;;9.60;;
55254;SDS011;41118;44.634;11.182;2022-11-15T15:52:14;29.15;;;11.13;;
55254;SDS011;41118;44.634;11.182;2022-11-15T15:54:40;29.73;;;11.40;;
55254;SDS011;41118;44.634;11.182;2022-11-15T15:57:07;25.50;;;9.15;;
55254;SDS011;41118;44.634;11.182;2022-11-15T15:59:34;30.80;;;12.30;;
55254;SDS011;41118;44.634;11.182;2022-11-15T16:02:00;30.15;;;11.18;;
55254;SDS011;41118;44.634;11.182;2022-11-15T16:04:26;38.38;;;12.68;;
55254;SDS011;41118;44.634;11.182;2022-11-15T16:06:57;33.45;;;12.20;;
55254;SDS011;41118;44.634;11.182;2022-11-15T16:09:24;35.88;;;11.35;;
55254;SDS011;41118;44.634;11.182;2022-11-15T16:12:08;33.58;;;12.35;;
55254;SDS011;41118;44.634;11.182;2022-11-15T16:14:34;33.58;;;10.18;;
55254;SDS011;41118;44.634;11.182;2022-11-15T16:17:01;36.28;;;13.30;;
55254;SDS011;41118;44.634;11.182;2022-11-15T16:19:27;31.80;;;12.13;;
55254;SDS011;41118;44.634;11.182;2022-11-15T16:21:54;29.85;;;11.25;;
55254;SDS011;41118;44.634;11.182;2022-11-15T16:24:20;31.42;;;12.52;;
55254;SDS011;41118;44.634;11.182;2022-11-15T16:26:47;31.58;;;12.15;;
55254;SDS011;41118;44.634;11.182;2022-11-15T16:29:14;29.60;;;12.60;;
55254;SDS011;41118;44.634;11.182;2022-11-15T16:31:40;31.35;;;10.15;;
55254;SDS011;41118;44.634;11.182;2022-11-15T16:34:06;35.35;;;11.85;;
55254;SDS011;41118;44.634;11.182;2022-11-15T16:36:33;31.00;;;11.05;;
55254;SDS011;41118;44.634;11.182;2022-11-15T16:38:59;30.75;;;10.52;;
55254;SDS011;41118;44.634;11.182;2022-11-15T16:41:28;43.22;;;13.15;;
55254;SDS011;41118;44.634;11.182;2022-11-15T16:43:55;28.25;;;9.07;;
55254;SDS011;41118;44.634;11.182;2022-11-15T16:46:23;27.40;;;9.45;;
55254;SDS011;41118;44.634;11.182;2022-11-15T16:48:50;33.95;;;9.52;;
55254;SDS011;41118;44.634;11.182;2022-11-15T16:51:16;22.52;;;10.20;;
55254;SDS011;41118;44.634;11.182;2022-11-15T16:53:42;27.67;;;11.93;;